sensor_id;sensor_type;location;lat;lon;timestamp;temperature;humidity
40932;DHT22;36257;46.052;12.540;2022-12-07T00:01:23;4.50;96.70
40932;DHT22;36257;46.052;12.540;2022-12-07T00:03:52;4.50;97.00
40932;DHT22;36257;46.052;12.540;2022-12-07T00:06:19;4.50;97.30
40932;DHT22;36257;46.052;12.540;2022-12-07T00:08:45;4.50;97.10
40932;DHT22;36257;46.052;12.540;2022-12-07T00:11:16;4.50;97.10
40932;DHT22;36257;46.052;12.540;2022-12-07T00:13:43;4.40;97.40
40932;DHT22;36257;46.052;12.540;2022-12-07T00:16:11;4.30;97.40
40932;DHT22;36257;46.052;12.540;2022-12-07T00:18:37;4.30;97.30
40932;DHT22;36257;46.052;12.540;2022-12-07T00:23:34;4.30;97.80
40932;DHT22;36257;46.052;12.540;2022-12-07T00:26:08;4.30;97.60
40932;DHT22;36257;46.052;12.540;2022-12-07T00:28:34;4.40;97.50
40932;DHT22;36257;46.052;12.540;2022-12-07T00:31:12;4.40;96.90
40932;DHT22;36257;46.052;12.540;2022-12-07T00:33:38;4.40;96.60
40932;DHT22;36257;46.052;12.540;2022-12-07T00:36:08;4.50;96.60
40932;DHT22;36257;46.052;12.540;2022-12-07T00:38:35;4.50;96.10
40932;DHT22;36257;46.052;12.540;2022-12-07T00:41:04;4.50;95.80
40932;DHT22;36257;46.052;12.540;2022-12-07T00:43:30;4.50;95.40
40932;DHT22;36257;46.052;12.540;2022-12-07T00:45:56;4.50;95.20
40932;DHT22;36257;46.052;12.540;2022-12-07T00:48:23;4.60;95.50
40932;DHT22;36257;46.052;12.540;2022-12-07T00:50:49;4.50;96.00
40932;DHT22;36257;46.052;12.540;2022-12-07T00:53:15;4.60;95.70
40932;DHT22;36257;46.052;12.540;2022-12-07T00:55:42;4.60;95.80
40932;DHT22;36257;46.052;12.540;2022-12-07T00:58:08;4.50;96.00
40932;DHT22;36257;46.052;12.540;2022-12-07T01:00:35;4.40;96.10
40932;DHT22;36257;46.052;12.540;2022-12-07T01:03:03;4.50;96.20
40932;DHT22;36257;46.052;12.540;2022-12-07T01:05:28;4.40;96.20
40932;DHT22;36257;46.052;12.540;2022-12-07T01:07:54;4.40;96.20
40932;DHT22;36257;46.052;12.540;2022-12-07T01:10:19;4.50;96.10
40932;DHT22;36257;46.052;12.540;2022-12-07T01:12:45;4.50;96.00
40932;DHT22;36257;46.052;12.540;2022-12-07T01:15:11;4.50;95.80
40932;DHT22;36257;46.052;12.540;2022-12-07T01:17:36;4.50;95.90
40932;DHT22;36257;46.052;12.540;2022-12-07T01:20:03;4.50;95.30
40932;DHT22;36257;46.052;12.540;2022-12-07T01:22:29;4.40;95.20
40932;DHT22;36257;46.052;12.540;2022-12-07T01:24:54;4.40;95.40
40932;DHT22;36257;46.052;12.540;2022-12-07T01:27:20;4.40;95.10
40932;DHT22;36257;46.052;12.540;2022-12-07T01:29:46;4.40;94.60
40932;DHT22;36257;46.052;12.540;2022-12-07T01:32:11;4.40;95.00
40932;DHT22;36257;46.052;12.540;2022-12-07T01:34:37;4.40;95.00
40932;DHT22;36257;46.052;12.540;2022-12-07T01:37:03;4.40;95.10
40932;DHT22;36257;46.052;12.540;2022-12-07T01:39:28;4.50;95.20
40932;DHT22;36257;46.052;12.540;2022-12-07T01:41:54;4.50;95.10
40932;DHT22;36257;46.052;12.540;2022-12-07T01:46:54;4.40;95.40
40932;DHT22;36257;46.052;12.540;2022-12-07T01:49:56;4.30;95.20
40932;DHT22;36257;46.052;12.540;2022-12-07T01:52:26;4.30;95.10
40932;DHT22;36257;46.052;12.540;2022-12-07T01:54:57;4.30;95.00
40932;DHT22;36257;46.052;12.540;2022-12-07T01:57:24;4.30;95.00
40932;DHT22;36257;46.052;12.540;2022-12-07T01:59:51;4.30;95.00
40932;DHT22;36257;46.052;12.540;2022-12-07T02:02:20;4.30;95.30
40932;DHT22;36257;46.052;12.540;2022-12-07T02:04:49;4.30;95.60
40932;DHT22;36257;46.052;12.540;2022-12-07T02:07:16;4.20;95.90
40932;DHT22;36257;46.052;12.540;2022-12-07T02:09:42;4.20;96.10
40932;DHT22;36257;46.052;12.540;2022-12-07T02:12:07;4.20;95.90
40932;DHT22;36257;46.052;12.540;2022-12-07T02:14:33;4.10;96.00
40932;DHT22;36257;46.052;12.540;2022-12-07T02:27:46;4.10;96.20
40932;DHT22;36257;46.052;12.540;2022-12-07T02:30:19;4.10;96.30
40932;DHT22;36257;46.052;12.540;2022-12-07T02:35:20;4.20;96.30
40932;DHT22;36257;46.052;12.540;2022-12-07T02:43:30;4.20;96.20
40932;DHT22;36257;46.052;12.540;2022-12-07T02:46:01;4.20;96.30
40932;DHT22;36257;46.052;12.540;2022-12-07T02:48:28;4.20;96.70
40932;DHT22;36257;46.052;12.540;2022-12-07T02:50:57;4.10;97.10
40932;DHT22;36257;46.052;12.540;2022-12-07T02:53:42;4.00;97.50
40932;DHT22;36257;46.052;12.540;2022-12-07T03:07:51;4.10;96.70
40932;DHT22;36257;46.052;12.540;2022-12-07T03:10:45;4.20;96.60
40932;DHT22;36257;46.052;12.540;2022-12-07T03:18:58;4.30;95.90
40932;DHT22;36257;46.052;12.540;2022-12-07T03:21:35;4.30;95.60
40932;DHT22;36257;46.052;12.540;2022-12-07T03:24:07;4.40;95.60
40932;DHT22;36257;46.052;12.540;2022-12-07T03:26:36;4.40;95.70
40932;DHT22;36257;46.052;12.540;2022-12-07T03:29:12;4.40;95.60
40932;DHT22;36257;46.052;12.540;2022-12-07T03:31:42;4.50;95.40
40932;DHT22;36257;46.052;12.540;2022-12-07T03:35:23;4.50;95.20
40932;DHT22;36257;46.052;12.540;2022-12-07T03:37:23;4.60;95.10
40932;DHT22;36257;46.052;12.540;2022-12-07T03:42:38;4.70;94.90
40932;DHT22;36257;46.052;12.540;2022-12-07T03:45:05;4.70;95.60
40932;DHT22;36257;46.052;12.540;2022-12-07T03:47:37;4.70;95.70
40932;DHT22;36257;46.052;12.540;2022-12-07T03:50:21;4.60;94.90
40932;DHT22;36257;46.052;12.540;2022-12-07T03:53:11;4.60;94.90
40932;DHT22;36257;46.052;12.540;2022-12-07T03:55:42;4.60;95.10
40932;DHT22;36257;46.052;12.540;2022-12-07T03:58:14;4.50;95.40
40932;DHT22;36257;46.052;12.540;2022-12-07T04:00:42;4.50;95.60
40932;DHT22;36257;46.052;12.540;2022-12-07T04:03:08;4.60;95.30
40932;DHT22;36257;46.052;12.540;2022-12-07T04:05:33;4.60;95.40
40932;DHT22;36257;46.052;12.540;2022-12-07T04:08:00;4.50;95.60
40932;DHT22;36257;46.052;12.540;2022-12-07T04:10:25;4.50;95.80
40932;DHT22;36257;46.052;12.540;2022-12-07T04:12:51;4.60;95.00
40932;DHT22;36257;46.052;12.540;2022-12-07T04:15:17;4.60;94.30
40932;DHT22;36257;46.052;12.540;2022-12-07T04:17:42;4.60;94.50
40932;DHT22;36257;46.052;12.540;2022-12-07T04:20:08;4.70;95.20
40932;DHT22;36257;46.052;12.540;2022-12-07T04:22:34;4.70;95.30
40932;DHT22;36257;46.052;12.540;2022-12-07T04:25:00;4.70;94.90
40932;DHT22;36257;46.052;12.540;2022-12-07T04:27:25;4.70;94.70
40932;DHT22;36257;46.052;12.540;2022-12-07T04:29:51;4.70;94.20
40932;DHT22;36257;46.052;12.540;2022-12-07T04:32:17;4.60;94.50
40932;DHT22;36257;46.052;12.540;2022-12-07T04:34:42;4.60;94.60
40932;DHT22;36257;46.052;12.540;2022-12-07T04:37:08;4.60;94.90
40932;DHT22;36257;46.052;12.540;2022-12-07T04:39:33;4.60;94.70
40932;DHT22;36257;46.052;12.540;2022-12-07T04:41:59;4.50;94.40
40932;DHT22;36257;46.052;12.540;2022-12-07T04:44:26;4.50;94.40
40932;DHT22;36257;46.052;12.540;2022-12-07T04:46:53;4.50;94.60
40932;DHT22;36257;46.052;12.540;2022-12-07T04:49:19;4.50;95.00
40932;DHT22;36257;46.052;12.540;2022-12-07T04:51:45;4.50;95.70
40932;DHT22;36257;46.052;12.540;2022-12-07T04:54:12;4.50;96.20
40932;DHT22;36257;46.052;12.540;2022-12-07T04:56:38;4.50;95.70
40932;DHT22;36257;46.052;12.540;2022-12-07T04:59:04;4.50;95.70
40932;DHT22;36257;46.052;12.540;2022-12-07T05:01:30;4.40;95.30
40932;DHT22;36257;46.052;12.540;2022-12-07T05:03:56;4.20;95.60
40932;DHT22;36257;46.052;12.540;2022-12-07T05:06:22;4.10;96.00
40932;DHT22;36257;46.052;12.540;2022-12-07T05:08:47;4.10;97.00
40932;DHT22;36257;46.052;12.540;2022-12-07T05:11:13;4.00;97.60
40932;DHT22;36257;46.052;12.540;2022-12-07T05:14:00;3.90;98.20
40932;DHT22;36257;46.052;12.540;2022-12-07T05:16:26;3.90;98.30
40932;DHT22;36257;46.052;12.540;2022-12-07T05:18:52;3.80;98.60
40932;DHT22;36257;46.052;12.540;2022-12-07T05:21:18;3.70;99.10
40932;DHT22;36257;46.052;12.540;2022-12-07T05:23:44;3.70;99.30
40932;DHT22;36257;46.052;12.540;2022-12-07T05:26:09;3.70;99.40
40932;DHT22;36257;46.052;12.540;2022-12-07T05:28:35;3.60;99.60
40932;DHT22;36257;46.052;12.540;2022-12-07T05:31:01;3.50;99.90
40932;DHT22;36257;46.052;12.540;2022-12-07T05:33:26;3.50;99.90
40932;DHT22;36257;46.052;12.540;2022-12-07T05:35:52;3.50;99.90
40932;DHT22;36257;46.052;12.540;2022-12-07T05:38:17;3.50;99.90
40932;DHT22;36257;46.052;12.540;2022-12-07T05:40:43;3.50;99.90
40932;DHT22;36257;46.052;12.540;2022-12-07T05:43:10;3.50;99.90
40932;DHT22;36257;46.052;12.540;2022-12-07T05:45:36;3.40;99.90
40932;DHT22;36257;46.052;12.540;2022-12-07T05:48:01;3.50;99.90
40932;DHT22;36257;46.052;12.540;2022-12-07T05:50:27;3.50;99.90
40932;DHT22;36257;46.052;12.540;2022-12-07T05:52:53;3.50;99.90
40932;DHT22;36257;46.052;12.540;2022-12-07T05:55:19;3.60;99.90
40932;DHT22;36257;46.052;12.540;2022-12-07T05:57:45;3.60;99.90
40932;DHT22;36257;46.052;12.540;2022-12-07T06:00:31;3.60;99.00
40932;DHT22;36257;46.052;12.540;2022-12-07T06:02:56;3.70;98.20
40932;DHT22;36257;46.052;12.540;2022-12-07T06:05:22;3.70;97.60
40932;DHT22;36257;46.052;12.540;2022-12-07T06:07:48;3.80;97.10
40932;DHT22;36257;46.052;12.540;2022-12-07T06:10:13;3.90;96.90
40932;DHT22;36257;46.052;12.540;2022-12-07T06:12:39;4.00;96.80
40932;DHT22;36257;46.052;12.540;2022-12-07T06:15:08;3.90;96.70
40932;DHT22;36257;46.052;12.540;2022-12-07T06:17:34;4.00;96.30
40932;DHT22;36257;46.052;12.540;2022-12-07T06:20:00;4.00;96.30
40932;DHT22;36257;46.052;12.540;2022-12-07T06:22:25;4.00;96.20
40932;DHT22;36257;46.052;12.540;2022-12-07T06:24:51;4.00;96.40
40932;DHT22;36257;46.052;12.540;2022-12-07T06:27:17;3.90;96.20
40932;DHT22;36257;46.052;12.540;2022-12-07T06:29:42;3.90;96.10
40932;DHT22;36257;46.052;12.540;2022-12-07T06:32:08;3.90;95.90
40932;DHT22;36257;46.052;12.540;2022-12-07T06:34:34;3.90;95.70
40932;DHT22;36257;46.052;12.540;2022-12-07T06:37:00;3.90;95.40
40932;DHT22;36257;46.052;12.540;2022-12-07T06:39:27;3.90;95.50
40932;DHT22;36257;46.052;12.540;2022-12-07T06:41:53;3.90;95.20
40932;DHT22;36257;46.052;12.540;2022-12-07T06:44:20;3.90;95.10
40932;DHT22;36257;46.052;12.540;2022-12-07T06:46:47;3.90;95.00
40932;DHT22;36257;46.052;12.540;2022-12-07T06:49:12;4.00;94.80
40932;DHT22;36257;46.052;12.540;2022-12-07T06:51:38;3.90;94.60
40932;DHT22;36257;46.052;12.540;2022-12-07T06:54:11;3.90;94.10
40932;DHT22;36257;46.052;12.540;2022-12-07T06:56:37;4.00;94.10
40932;DHT22;36257;46.052;12.540;2022-12-07T06:59:04;4.00;94.40
40932;DHT22;36257;46.052;12.540;2022-12-07T07:01:31;4.00;94.40
40932;DHT22;36257;46.052;12.540;2022-12-07T07:03:57;4.00;94.40
40932;DHT22;36257;46.052;12.540;2022-12-07T07:06:23;4.10;94.40
40932;DHT22;36257;46.052;12.540;2022-12-07T07:08:49;4.10;94.50
40932;DHT22;36257;46.052;12.540;2022-12-07T07:11:14;4.10;94.60
40932;DHT22;36257;46.052;12.540;2022-12-07T07:13:40;4.10;95.10
40932;DHT22;36257;46.052;12.540;2022-12-07T07:16:06;4.20;95.10
40932;DHT22;36257;46.052;12.540;2022-12-07T07:18:32;4.20;95.30
40932;DHT22;36257;46.052;12.540;2022-12-07T07:20:58;4.20;95.20
40932;DHT22;36257;46.052;12.540;2022-12-07T07:23:23;4.20;95.40
40932;DHT22;36257;46.052;12.540;2022-12-07T07:25:49;4.30;95.50
40932;DHT22;36257;46.052;12.540;2022-12-07T07:28:15;4.30;95.60
40932;DHT22;36257;46.052;12.540;2022-12-07T07:30:41;4.40;96.00
40932;DHT22;36257;46.052;12.540;2022-12-07T07:33:07;4.40;95.90
40932;DHT22;36257;46.052;12.540;2022-12-07T07:35:33;4.50;95.80
40932;DHT22;36257;46.052;12.540;2022-12-07T07:38:00;4.60;95.10
40932;DHT22;36257;46.052;12.540;2022-12-07T07:40:27;4.80;94.90
40932;DHT22;36257;46.052;12.540;2022-12-07T07:42:53;4.90;94.80
40932;DHT22;36257;46.052;12.540;2022-12-07T07:45:20;5.00;94.70
40932;DHT22;36257;46.052;12.540;2022-12-07T07:47:47;5.10;94.70
40932;DHT22;36257;46.052;12.540;2022-12-07T07:50:12;5.20;94.90
40932;DHT22;36257;46.052;12.540;2022-12-07T07:52:38;5.30;95.10
40932;DHT22;36257;46.052;12.540;2022-12-07T07:55:04;5.40;95.00
40932;DHT22;36257;46.052;12.540;2022-12-07T07:57:30;5.50;95.50
40932;DHT22;36257;46.052;12.540;2022-12-07T07:59:55;5.60;95.70
40932;DHT22;36257;46.052;12.540;2022-12-07T08:02:22;5.70;95.70
40932;DHT22;36257;46.052;12.540;2022-12-07T08:04:47;5.70;95.60
40932;DHT22;36257;46.052;12.540;2022-12-07T08:07:14;5.90;95.70
40932;DHT22;36257;46.052;12.540;2022-12-07T08:09:40;6.10;94.60
40932;DHT22;36257;46.052;12.540;2022-12-07T08:12:06;6.40;93.70
40932;DHT22;36257;46.052;12.540;2022-12-07T08:14:32;6.60;93.40
40932;DHT22;36257;46.052;12.540;2022-12-07T08:16:58;6.70;93.40
40932;DHT22;36257;46.052;12.540;2022-12-07T08:19:24;6.90;92.30
40932;DHT22;36257;46.052;12.540;2022-12-07T08:21:49;7.10;91.60
40932;DHT22;36257;46.052;12.540;2022-12-07T08:24:15;7.40;88.20
40932;DHT22;36257;46.052;12.540;2022-12-07T08:26:42;7.70;87.70
40932;DHT22;36257;46.052;12.540;2022-12-07T08:29:08;7.90;88.40
40932;DHT22;36257;46.052;12.540;2022-12-07T08:31:33;8.00;89.90
40932;DHT22;36257;46.052;12.540;2022-12-07T08:33:59;8.20;88.30
40932;DHT22;36257;46.052;12.540;2022-12-07T08:36:25;8.40;85.70
40932;DHT22;36257;46.052;12.540;2022-12-07T08:38:51;8.60;87.00
40932;DHT22;36257;46.052;12.540;2022-12-07T08:41:16;8.80;87.20
40932;DHT22;36257;46.052;12.540;2022-12-07T08:43:42;9.00;86.80
40932;DHT22;36257;46.052;12.540;2022-12-07T08:48:37;9.30;83.50
40932;DHT22;36257;46.052;12.540;2022-12-07T08:51:04;9.50;84.40
40932;DHT22;36257;46.052;12.540;2022-12-07T08:53:32;9.60;83.60
40932;DHT22;36257;46.052;12.540;2022-12-07T08:55:59;9.80;82.70
40932;DHT22;36257;46.052;12.540;2022-12-07T08:58:24;10.00;82.90
40932;DHT22;36257;46.052;12.540;2022-12-07T09:00:50;10.20;82.20
40932;DHT22;36257;46.052;12.540;2022-12-07T09:03:16;10.40;81.50
40932;DHT22;36257;46.052;12.540;2022-12-07T09:05:41;10.60;78.80
40932;DHT22;36257;46.052;12.540;2022-12-07T09:08:07;10.60;77.80
40932;DHT22;36257;46.052;12.540;2022-12-07T09:10:33;10.80;77.30
40932;DHT22;36257;46.052;12.540;2022-12-07T09:12:59;11.00;77.40
40932;DHT22;36257;46.052;12.540;2022-12-07T09:15:28;11.10;77.70
40932;DHT22;36257;46.052;12.540;2022-12-07T09:17:54;11.10;76.50
40932;DHT22;36257;46.052;12.540;2022-12-07T09:20:21;11.10;78.10
40932;DHT22;36257;46.052;12.540;2022-12-07T09:22:47;11.30;78.00
40932;DHT22;36257;46.052;12.540;2022-12-07T09:25:12;11.60;77.70
40932;DHT22;36257;46.052;12.540;2022-12-07T09:27:38;11.80;75.50
40932;DHT22;36257;46.052;12.540;2022-12-07T09:30:05;11.90;76.20
40932;DHT22;36257;46.052;12.540;2022-12-07T09:32:31;12.00;75.60
40932;DHT22;36257;46.052;12.540;2022-12-07T09:34:56;12.20;75.60
40932;DHT22;36257;46.052;12.540;2022-12-07T09:37:22;12.40;75.60
40932;DHT22;36257;46.052;12.540;2022-12-07T09:39:48;12.60;74.60
40932;DHT22;36257;46.052;12.540;2022-12-07T09:42:30;12.80;75.40
40932;DHT22;36257;46.052;12.540;2022-12-07T09:44:58;13.30;74.30
40932;DHT22;36257;46.052;12.540;2022-12-07T09:47:24;13.70;73.50
40932;DHT22;36257;46.052;12.540;2022-12-07T09:49:50;14.00;72.20
40932;DHT22;36257;46.052;12.540;2022-12-07T09:52:19;14.10;73.80
40932;DHT22;36257;46.052;12.540;2022-12-07T09:54:48;14.10;71.40
40932;DHT22;36257;46.052;12.540;2022-12-07T09:57:14;14.20;72.60
40932;DHT22;36257;46.052;12.540;2022-12-07T09:59:40;14.40;72.80
40932;DHT22;36257;46.052;12.540;2022-12-07T10:05:00;14.60;68.50
40932;DHT22;36257;46.052;12.540;2022-12-07T10:07:26;14.80;68.10
40932;DHT22;36257;46.052;12.540;2022-12-07T10:09:51;15.10;67.90
40932;DHT22;36257;46.052;12.540;2022-12-07T10:12:17;15.10;67.70
40932;DHT22;36257;46.052;12.540;2022-12-07T10:17:29;15.40;66.20
40932;DHT22;36257;46.052;12.540;2022-12-07T10:20:19;15.60;66.50
40932;DHT22;36257;46.052;12.540;2022-12-07T10:22:56;16.00;63.50
40932;DHT22;36257;46.052;12.540;2022-12-07T10:25:25;16.10;64.00
40932;DHT22;36257;46.052;12.540;2022-12-07T10:28:03;16.40;65.40
40932;DHT22;36257;46.052;12.540;2022-12-07T10:30:51;16.70;62.70
40932;DHT22;36257;46.052;12.540;2022-12-07T10:33:48;16.80;61.70
40932;DHT22;36257;46.052;12.540;2022-12-07T10:36:19;16.90;62.60
40932;DHT22;36257;46.052;12.540;2022-12-07T10:38:58;17.00;61.00
40932;DHT22;36257;46.052;12.540;2022-12-07T10:41:24;17.10;60.60
40932;DHT22;36257;46.052;12.540;2022-12-07T10:43:53;17.20;62.80
40932;DHT22;36257;46.052;12.540;2022-12-07T10:51:55;17.70;63.20
40932;DHT22;36257;46.052;12.540;2022-12-07T10:54:42;17.90;60.50
40932;DHT22;36257;46.052;12.540;2022-12-07T10:59:52;17.90;61.90
40932;DHT22;36257;46.052;12.540;2022-12-07T11:05:03;18.00;57.60
40932;DHT22;36257;46.052;12.540;2022-12-07T11:13:44;17.70;58.70
40932;DHT22;36257;46.052;12.540;2022-12-07T11:21:42;17.70;60.80
40932;DHT22;36257;46.052;12.540;2022-12-07T11:24:18;17.90;59.70
40932;DHT22;36257;46.052;12.540;2022-12-07T11:37:33;17.50;63.60
40932;DHT22;36257;46.052;12.540;2022-12-07T11:40:05;17.70;62.50
40932;DHT22;36257;46.052;12.540;2022-12-07T11:42:48;17.50;59.90
40932;DHT22;36257;46.052;12.540;2022-12-07T11:47:47;17.40;63.30
40932;DHT22;36257;46.052;12.540;2022-12-07T11:50:56;17.20;63.90
40932;DHT22;36257;46.052;12.540;2022-12-07T12:01:12;16.00;65.40
40932;DHT22;36257;46.052;12.540;2022-12-07T12:03:49;16.00;66.20
40932;DHT22;36257;46.052;12.540;2022-12-07T12:06:15;15.70;67.80
40932;DHT22;36257;46.052;12.540;2022-12-07T12:08:53;15.70;67.10
40932;DHT22;36257;46.052;12.540;2022-12-07T12:14:43;15.50;67.30
40932;DHT22;36257;46.052;12.540;2022-12-07T12:22:42;15.50;69.10
40932;DHT22;36257;46.052;12.540;2022-12-07T12:25:23;15.80;68.50
40932;DHT22;36257;46.052;12.540;2022-12-07T12:27:51;16.10;68.70
40932;DHT22;36257;46.052;12.540;2022-12-07T12:31:04;16.00;66.60
40932;DHT22;36257;46.052;12.540;2022-12-07T12:33:31;16.20;66.80
40932;DHT22;36257;46.052;12.540;2022-12-07T12:46:57;16.40;66.50
40932;DHT22;36257;46.052;12.540;2022-12-07T12:51:59;16.80;65.70
40932;DHT22;36257;46.052;12.540;2022-12-07T12:54:33;16.70;64.40
40932;DHT22;36257;46.052;12.540;2022-12-07T12:57:26;16.40;65.90
40932;DHT22;36257;46.052;12.540;2022-12-07T13:02:38;16.50;65.30
40932;DHT22;36257;46.052;12.540;2022-12-07T13:08:01;16.90;64.90
40932;DHT22;36257;46.052;12.540;2022-12-07T13:13:28;17.50;63.40
40932;DHT22;36257;46.052;12.540;2022-12-07T13:15:53;17.60;60.80
40932;DHT22;36257;46.052;12.540;2022-12-07T13:23:35;17.50;62.40
40932;DHT22;36257;46.052;12.540;2022-12-07T13:26:03;17.50;61.60
40932;DHT22;36257;46.052;12.540;2022-12-07T13:28:36;17.70;60.80
40932;DHT22;36257;46.052;12.540;2022-12-07T13:31:23;17.70;58.50
40932;DHT22;36257;46.052;12.540;2022-12-07T13:33:51;17.80;60.20
40932;DHT22;36257;46.052;12.540;2022-12-07T13:36:29;17.90;58.50
40932;DHT22;36257;46.052;12.540;2022-12-07T13:38:59;17.90;58.30
40932;DHT22;36257;46.052;12.540;2022-12-07T13:41:29;17.70;57.80
40932;DHT22;36257;46.052;12.540;2022-12-07T13:44:05;17.40;58.60
40932;DHT22;36257;46.052;12.540;2022-12-07T13:49:38;17.30;59.30
40932;DHT22;36257;46.052;12.540;2022-12-07T13:52:14;16.70;60.90
40932;DHT22;36257;46.052;12.540;2022-12-07T13:54:58;16.30;61.40
40932;DHT22;36257;46.052;12.540;2022-12-07T13:57:26;15.90;61.80
40932;DHT22;36257;46.052;12.540;2022-12-07T13:59:53;15.60;61.80
40932;DHT22;36257;46.052;12.540;2022-12-07T14:02:29;15.50;62.80
40932;DHT22;36257;46.052;12.540;2022-12-07T14:05:23;15.30;63.00
40932;DHT22;36257;46.052;12.540;2022-12-07T14:11:14;15.00;62.80
40932;DHT22;36257;46.052;12.540;2022-12-07T14:13:35;14.70;63.70
40932;DHT22;36257;46.052;12.540;2022-12-07T14:16:02;14.30;62.70
40932;DHT22;36257;46.052;12.540;2022-12-07T14:18:40;14.10;65.50
40932;DHT22;36257;46.052;12.540;2022-12-07T14:21:17;14.10;68.20
40932;DHT22;36257;46.052;12.540;2022-12-07T14:23:45;14.10;68.00
40932;DHT22;36257;46.052;12.540;2022-12-07T14:26:26;14.10;68.10
40932;DHT22;36257;46.052;12.540;2022-12-07T14:28:52;14.00;67.50
40932;DHT22;36257;46.052;12.540;2022-12-07T14:31:22;13.90;66.90
40932;DHT22;36257;46.052;12.540;2022-12-07T14:33:49;13.80;69.20
40932;DHT22;36257;46.052;12.540;2022-12-07T14:36:15;13.60;67.60
40932;DHT22;36257;46.052;12.540;2022-12-07T14:38:41;13.40;68.90
40932;DHT22;36257;46.052;12.540;2022-12-07T14:41:13;13.20;72.30
40932;DHT22;36257;46.052;12.540;2022-12-07T14:43:58;12.90;73.80
40932;DHT22;36257;46.052;12.540;2022-12-07T14:46:24;12.60;76.20
40932;DHT22;36257;46.052;12.540;2022-12-07T14:48:50;12.20;76.60
40932;DHT22;36257;46.052;12.540;2022-12-07T14:51:16;11.90;77.70
40932;DHT22;36257;46.052;12.540;2022-12-07T14:53:46;11.60;78.40
40932;DHT22;36257;46.052;12.540;2022-12-07T14:56:13;11.40;79.20
40932;DHT22;36257;46.052;12.540;2022-12-07T14:58:39;11.10;80.00
40932;DHT22;36257;46.052;12.540;2022-12-07T15:01:05;10.80;80.60
40932;DHT22;36257;46.052;12.540;2022-12-07T15:03:31;10.70;81.20
40932;DHT22;36257;46.052;12.540;2022-12-07T15:05:57;10.50;81.90
40932;DHT22;36257;46.052;12.540;2022-12-07T15:08:23;10.30;82.60
40932;DHT22;36257;46.052;12.540;2022-12-07T15:10:49;10.20;83.10
40932;DHT22;36257;46.052;12.540;2022-12-07T15:13:14;10.00;82.90
40932;DHT22;36257;46.052;12.540;2022-12-07T15:15:59;9.80;83.10
40932;DHT22;36257;46.052;12.540;2022-12-07T15:18:25;9.60;83.60
40932;DHT22;36257;46.052;12.540;2022-12-07T15:20:51;9.40;84.20
40932;DHT22;36257;46.052;12.540;2022-12-07T15:23:17;9.30;84.80
40932;DHT22;36257;46.052;12.540;2022-12-07T15:25:47;9.20;85.00
40932;DHT22;36257;46.052;12.540;2022-12-07T15:28:13;9.00;85.60
40932;DHT22;36257;46.052;12.540;2022-12-07T15:30:41;8.80;86.50
40932;DHT22;36257;46.052;12.540;2022-12-07T15:33:11;8.60;87.20
40932;DHT22;36257;46.052;12.540;2022-12-07T15:35:44;8.50;87.90
40932;DHT22;36257;46.052;12.540;2022-12-07T15:38:11;8.40;88.00
40932;DHT22;36257;46.052;12.540;2022-12-07T15:40:37;8.30;88.30
40932;DHT22;36257;46.052;12.540;2022-12-07T15:43:03;8.30;88.70
40932;DHT22;36257;46.052;12.540;2022-12-07T15:45:29;8.10;89.50
40932;DHT22;36257;46.052;12.540;2022-12-07T15:47:55;8.10;89.30
40932;DHT22;36257;46.052;12.540;2022-12-07T15:50:21;8.00;88.90
40932;DHT22;36257;46.052;12.540;2022-12-07T15:52:49;7.90;88.90
40932;DHT22;36257;46.052;12.540;2022-12-07T15:55:15;7.90;88.90
40932;DHT22;36257;46.052;12.540;2022-12-07T15:57:41;7.80;89.10
40932;DHT22;36257;46.052;12.540;2022-12-07T16:00:08;7.80;89.20
40932;DHT22;36257;46.052;12.540;2022-12-07T16:02:36;7.70;89.30
40932;DHT22;36257;46.052;12.540;2022-12-07T16:05:02;7.70;89.10
40932;DHT22;36257;46.052;12.540;2022-12-07T16:07:28;7.70;89.00
40932;DHT22;36257;46.052;12.540;2022-12-07T16:09:53;7.60;88.80
40932;DHT22;36257;46.052;12.540;2022-12-07T16:12:19;7.50;89.00
40932;DHT22;36257;46.052;12.540;2022-12-07T16:14:44;7.50;88.40
40932;DHT22;36257;46.052;12.540;2022-12-07T16:17:10;7.40;88.00
40932;DHT22;36257;46.052;12.540;2022-12-07T16:19:39;7.40;87.60
40932;DHT22;36257;46.052;12.540;2022-12-07T16:22:05;7.30;87.60
40932;DHT22;36257;46.052;12.540;2022-12-07T16:24:33;7.20;87.50
40932;DHT22;36257;46.052;12.540;2022-12-07T16:26:59;7.20;87.30
40932;DHT22;36257;46.052;12.540;2022-12-07T16:29:25;7.20;86.80
40932;DHT22;36257;46.052;12.540;2022-12-07T16:31:51;7.00;86.90
40932;DHT22;36257;46.052;12.540;2022-12-07T16:34:17;7.00;86.80
40932;DHT22;36257;46.052;12.540;2022-12-07T16:36:43;7.00;86.80
40932;DHT22;36257;46.052;12.540;2022-12-07T16:39:09;6.90;86.70
40932;DHT22;36257;46.052;12.540;2022-12-07T16:41:34;6.90;86.70
40932;DHT22;36257;46.052;12.540;2022-12-07T16:44:11;6.90;86.50
40932;DHT22;36257;46.052;12.540;2022-12-07T16:46:38;6.90;86.20
40932;DHT22;36257;46.052;12.540;2022-12-07T16:49:04;6.80;86.50
40932;DHT22;36257;46.052;12.540;2022-12-07T16:51:30;6.80;86.50
40932;DHT22;36257;46.052;12.540;2022-12-07T16:53:56;6.80;86.40
40932;DHT22;36257;46.052;12.540;2022-12-07T16:56:22;6.70;86.60
40932;DHT22;36257;46.052;12.540;2022-12-07T16:58:48;6.70;86.70
40932;DHT22;36257;46.052;12.540;2022-12-07T17:01:22;6.70;86.70
40932;DHT22;36257;46.052;12.540;2022-12-07T17:03:48;6.70;86.50
40932;DHT22;36257;46.052;12.540;2022-12-07T17:06:22;6.70;86.60
40932;DHT22;36257;46.052;12.540;2022-12-07T17:08:49;6.70;86.50
40932;DHT22;36257;46.052;12.540;2022-12-07T17:11:20;6.60;87.20
40932;DHT22;36257;46.052;12.540;2022-12-07T17:13:47;6.60;87.00
40932;DHT22;36257;46.052;12.540;2022-12-07T17:16:31;6.60;87.20
40932;DHT22;36257;46.052;12.540;2022-12-07T17:18:57;6.60;87.40
40932;DHT22;36257;46.052;12.540;2022-12-07T17:21:23;6.60;87.60
40932;DHT22;36257;46.052;12.540;2022-12-07T17:23:49;6.60;87.60
40932;DHT22;36257;46.052;12.540;2022-12-07T17:26:22;6.50;87.90
40932;DHT22;36257;46.052;12.540;2022-12-07T17:28:48;6.40;88.00
40932;DHT22;36257;46.052;12.540;2022-12-07T17:31:16;6.40;88.50
40932;DHT22;36257;46.052;12.540;2022-12-07T17:33:41;6.40;88.60
40932;DHT22;36257;46.052;12.540;2022-12-07T17:36:18;6.50;88.50
40932;DHT22;36257;46.052;12.540;2022-12-07T17:38:45;6.40;88.40
40932;DHT22;36257;46.052;12.540;2022-12-07T17:41:20;6.40;88.90
40932;DHT22;36257;46.052;12.540;2022-12-07T17:44:07;6.40;89.00
40932;DHT22;36257;46.052;12.540;2022-12-07T17:46:33;6.30;89.00
40932;DHT22;36257;46.052;12.540;2022-12-07T17:48:59;6.30;89.00
40932;DHT22;36257;46.052;12.540;2022-12-07T17:51:25;6.30;89.20
40932;DHT22;36257;46.052;12.540;2022-12-07T17:54:09;6.30;89.30
40932;DHT22;36257;46.052;12.540;2022-12-07T17:56:36;6.30;89.40